createdAt,value
2022-10-26T00:01:15.747Z,100.00
2022-10-26T00:06:21.783Z,100.00
2022-10-26T00:11:25.191Z,100.00
2022-10-26T00:16:29.149Z,100.00
2022-10-26T00:21:33.255Z,100.00
2022-10-26T00:26:36.335Z,100.00
2022-10-26T00:31:39.499Z,100.00
2022-10-26T00:36:43.545Z,100.00
2022-10-26T00:41:46.263Z,100.00
2022-10-26T00:46:49.038Z,100.00
2022-10-26T00:51:54.674Z,100.00
2022-10-26T00:56:57.956Z,100.00
2022-10-26T01:02:00.769Z,100.00
2022-10-26T01:07:06.923Z,100.00
2022-10-26T01:12:09.657Z,100.00
2022-10-26T01:17:27.820Z,100.00
2022-10-26T01:22:39.650Z,100.00
2022-10-26T01:27:46.358Z,100.00
2022-10-26T01:33:12.047Z,100.00
2022-10-26T01:38:23.514Z,100.00
2022-10-26T01:43:29.471Z,100.00
2022-10-26T01:48:35.311Z,100.00
2022-10-26T01:53:45.374Z,100.00
2022-10-26T01:59:13.187Z,100.00
2022-10-26T02:04:31.621Z,100.00
2022-10-26T02:09:45.630Z,100.00
2022-10-26T02:14:52.285Z,100.00
2022-10-26T02:20:01.271Z,100.00
2022-10-26T02:25:09.947Z,100.00
2022-10-26T02:30:14.383Z,100.00
2022-10-26T02:35:22.204Z,100.00
2022-10-26T02:40:28.162Z,100.00
2022-10-26T02:45:35.423Z,100.00
2022-10-26T02:50:44.109Z,100.00
2022-10-26T02:55:50.827Z,100.00
2022-10-26T03:00:54.521Z,100.00
2022-10-26T03:05:58.627Z,100.00
2022-10-26T03:11:01.333Z,100.00
2022-10-26T03:16:04.013Z,100.00
2022-10-26T03:21:08.249Z,100.00
2022-10-26T03:26:10.986Z,100.00
2022-10-26T03:31:13.929Z,100.00
2022-10-26T03:36:18.002Z,100.00
2022-10-26T03:41:22.467Z,100.00
2022-10-26T03:46:30.364Z,100.00
2022-10-26T03:51:35.466Z,100.00
2022-10-26T03:56:38.212Z,100.00
2022-10-26T04:01:41.109Z,100.00
2022-10-26T04:06:47.934Z,100.00
2022-10-26T04:11:50.663Z,100.00
2022-10-26T04:16:53.379Z,100.00
2022-10-26T04:21:57.427Z,100.00
2022-10-26T04:27:00.155Z,100.00
2022-10-26T04:32:02.943Z,100.00
2022-10-26T04:37:07.014Z,100.00
2022-10-26T04:42:09.717Z,100.00
2022-10-26T04:47:13.362Z,100.00
2022-10-26T04:52:17.473Z,100.00
2022-10-26T05:02:46.764Z,100.00
2022-10-26T05:07:56.760Z,100.00
2022-10-26T05:13:00.849Z,100.00
2022-10-26T05:18:05.430Z,100.00
2022-10-26T05:23:13.809Z,100.00
2022-10-26T05:28:18.830Z,100.00
2022-10-26T05:33:21.860Z,100.00
2022-10-26T05:43:30.284Z,100.00
2022-10-26T05:48:33.417Z,100.00
2022-10-26T05:53:37.474Z,100.00
2022-10-26T05:58:40.811Z,100.00
2022-10-26T06:03:59.019Z,100.00
2022-10-26T06:09:03.717Z,100.00
2022-10-26T06:14:07.435Z,100.00
2022-10-26T06:19:23.961Z,100.00
2022-10-26T06:24:40.877Z,100.00
2022-10-26T06:29:51.602Z,100.00
2022-10-26T06:35:07.325Z,100.00
2022-10-26T06:40:15.586Z,100.00
2022-10-26T06:45:19.461Z,100.00
2022-10-26T06:50:37.400Z,100.00
2022-10-26T06:55:44.685Z,100.00
2022-10-26T07:00:55.437Z,100.00
2022-10-26T07:05:58.321Z,100.00
2022-10-26T07:11:04.332Z,100.00
2022-10-26T07:16:07.503Z,100.00
2022-10-26T07:21:10.502Z,100.00
2022-10-26T07:26:14.670Z,100.00
2022-10-26T07:31:17.531Z,100.00
2022-10-26T07:36:20.516Z,100.00
2022-10-26T07:41:24.605Z,100.00
2022-10-26T07:46:28.741Z,100.00
2022-10-26T07:51:31.427Z,100.00
2022-10-26T07:56:35.633Z,100.00
2022-10-26T08:01:38.657Z,100.00
2022-10-26T08:06:41.453Z,100.00
2022-10-26T08:11:45.555Z,100.00
2022-10-26T08:16:52.698Z,100.00
2022-10-26T08:21:55.681Z,100.00
2022-10-26T08:26:59.757Z,100.00
2022-10-26T08:32:02.577Z,100.00
2022-10-26T08:37:05.314Z,100.00
2022-10-26T08:42:15.556Z,100.00
2022-10-26T08:47:21.866Z,100.00
2022-10-26T08:52:30.783Z,100.00
2022-10-26T08:57:39.549Z,100.00
2022-10-26T09:02:42.482Z,100.00
2022-10-26T09:07:55.849Z,100.00
2022-10-26T09:13:07.545Z,100.00
2022-10-26T09:18:24.556Z,100.00
2022-10-26T09:23:40.903Z,100.00
2022-10-26T09:28:49.062Z,100.00
2022-10-26T09:33:54.248Z,100.00
2022-10-26T09:39:03.521Z,100.00
2022-10-26T09:44:12.820Z,100.00
2022-10-26T09:49:17.626Z,100.00
2022-10-26T09:54:22.553Z,100.00
2022-10-26T09:59:27.635Z,100.00
2022-10-26T10:04:33.758Z,100.00
2022-10-26T10:09:36.503Z,100.00
2022-10-26T10:14:56.381Z,100.00
2022-10-26T10:20:12.499Z,100.00
2022-10-26T10:25:26.217Z,100.00
2022-10-26T10:30:32.772Z,100.00
2022-10-26T10:35:35.841Z,100.00
2022-10-26T10:40:38.857Z,100.00
2022-10-26T10:45:49.051Z,100.00
2022-10-26T10:50:54.470Z,100.00
2022-10-26T10:56:11.467Z,100.00
2022-10-26T11:01:22.322Z,100.00
2022-10-26T11:06:28.787Z,100.00
2022-10-26T11:11:35.880Z,97.65
2022-10-26T11:16:44.296Z,100.00
2022-10-26T11:21:51.953Z,96.26
2022-10-26T11:27:00.920Z,100.00
2022-10-26T11:32:14.989Z,100.00
2022-10-26T11:37:24.829Z,99.42
2022-10-26T11:42:31.631Z,92.24
2022-10-26T11:47:41.492Z,90.19
2022-10-26T11:52:48.775Z,89.83
2022-10-26T11:57:55.010Z,88.54
2022-10-26T12:03:05.727Z,88.81
2022-10-26T12:08:15.188Z,87.48
2022-10-26T12:13:24.637Z,87.36
2022-10-26T12:18:54.440Z,85.83
2022-10-26T12:23:59.656Z,84.22
2022-10-26T12:29:29.513Z,83.89
2022-10-26T12:35:05.748Z,82.64
2022-10-26T12:40:40.280Z,81.98
2022-10-26T12:45:44.179Z,83.93
2022-10-26T12:50:48.774Z,82.21
2022-10-26T12:56:18.118Z,85.12
2022-10-26T13:01:59.219Z,84.03
2022-10-26T13:07:20.729Z,84.51
2022-10-26T13:12:23.978Z,85.86
2022-10-26T13:17:29.089Z,85.43
2022-10-26T13:22:34.071Z,84.54
2022-10-26T13:27:45.338Z,85.77
2022-10-26T13:32:56.572Z,84.78
2022-10-26T13:38:08.358Z,86.40
2022-10-26T13:43:20.948Z,85.21
2022-10-26T13:48:32.575Z,85.24
2022-10-26T13:53:43.545Z,84.17
2022-10-26T13:58:51.135Z,85.42
2022-10-26T14:03:53.945Z,84.94
2022-10-26T14:09:01.632Z,87.32
2022-10-26T14:14:05.772Z,86.80
2022-10-26T14:19:16.319Z,87.93
2022-10-26T14:24:45.271Z,88.18
2022-10-26T14:30:16.803Z,87.70
2022-10-26T14:35:13.516Z,88.27
2022-10-26T14:40:20.092Z,88.22
2022-10-26T14:45:49.589Z,87.69
2022-10-26T14:51:03.567Z,88.19
2022-10-26T14:56:25.707Z,88.59
2022-10-26T15:01:33.254Z,88.96
2022-10-26T15:06:43.468Z,89.52
2022-10-26T15:11:47.772Z,91.19
2022-10-26T15:16:54.069Z,92.28
2022-10-26T15:21:57.148Z,92.39
2022-10-26T15:27:02.566Z,92.72
2022-10-26T15:32:19.808Z,94.56
2022-10-26T15:37:22.803Z,95.91
2022-10-26T15:42:27.056Z,96.93
2022-10-26T15:47:34.556Z,98.39
2022-10-26T15:52:37.337Z,99.62
2022-10-26T15:57:41.938Z,100.00
2022-10-26T16:02:46.255Z,100.00
2022-10-26T16:07:49.998Z,100.00
2022-10-26T16:12:54.381Z,100.00
2022-10-26T16:17:57.137Z,100.00
2022-10-26T16:23:06.159Z,100.00
2022-10-26T16:28:12.561Z,100.00
2022-10-26T16:33:15.756Z,100.00
2022-10-26T16:38:18.590Z,100.00
2022-10-26T16:43:22.724Z,100.00
2022-10-26T16:48:25.765Z,100.00
2022-10-26T16:53:28.489Z,100.00
2022-10-26T16:58:36.784Z,100.00
2022-10-26T17:03:40.809Z,100.00
2022-10-26T17:08:43.941Z,100.00
2022-10-26T17:13:48.782Z,100.00
2022-10-26T17:18:52.522Z,100.00
2022-10-26T17:23:55.629Z,100.00
2022-10-26T17:29:00.679Z,100.00
2022-10-26T17:34:03.845Z,100.00
2022-10-26T17:39:06.590Z,100.00
2022-10-26T17:44:10.915Z,100.00
2022-10-26T17:49:13.884Z,100.00
2022-10-26T17:59:25.933Z,100.00
2022-10-26T18:04:28.805Z,100.00
2022-10-26T18:09:31.629Z,100.00
2022-10-26T18:14:35.729Z,100.00
2022-10-26T18:19:38.593Z,100.00
2022-10-26T18:24:41.409Z,100.00
2022-10-26T18:29:45.604Z,100.00
2022-10-26T18:34:48.348Z,100.00
2022-10-26T18:39:51.153Z,100.00
2022-10-26T18:45:00.468Z,100.00
2022-10-26T18:50:03.436Z,100.00
2022-10-26T18:55:07.054Z,100.00
2022-10-26T19:00:12.697Z,100.00
2022-10-26T19:05:15.554Z,100.00
2022-10-26T19:10:18.660Z,100.00
2022-10-26T19:15:22.780Z,100.00
2022-10-26T19:20:25.585Z,100.00
2022-10-26T19:25:28.301Z,100.00
2022-10-26T19:30:33.576Z,100.00
2022-10-26T19:40:43.980Z,100.00
2022-10-26T19:45:48.192Z,100.00
2022-10-26T19:50:52.733Z,100.00
2022-10-26T19:55:57.375Z,100.00
2022-10-26T20:01:03.164Z,100.00
2022-10-26T20:06:08.451Z,100.00
2022-10-26T20:11:15.460Z,100.00
2022-10-26T20:16:20.085Z,100.00
2022-10-26T20:21:23.874Z,100.00
2022-10-26T20:26:28.541Z,100.00
2022-10-26T20:31:32.991Z,100.00
2022-10-26T20:36:35.862Z,100.00
2022-10-26T20:41:42.819Z,100.00
2022-10-26T20:46:48.643Z,100.00
2022-10-26T20:52:20.133Z,100.00
2022-10-26T20:57:29.244Z,100.00
2022-10-26T21:02:34.201Z,100.00
2022-10-26T21:07:37.336Z,100.00
2022-10-26T21:12:41.072Z,100.00
2022-10-26T21:17:45.154Z,100.00
2022-10-26T21:22:47.921Z,100.00
2022-10-26T21:27:55.727Z,100.00
2022-10-26T21:32:59.862Z,100.00
2022-10-26T21:38:02.577Z,100.00
2022-10-26T21:43:05.258Z,100.00
2022-10-26T21:48:09.342Z,100.00
2022-10-26T21:53:12.264Z,100.00
2022-10-26T21:58:16.962Z,100.00
2022-10-26T22:03:21.095Z,100.00
2022-10-26T22:08:23.838Z,100.00
2022-10-26T22:13:28.674Z,100.00
2022-10-26T22:18:35.729Z,100.00
2022-10-26T22:23:39.944Z,100.00
2022-10-26T22:28:44.263Z,100.00
2022-10-26T22:33:52.607Z,100.00
2022-10-26T22:38:56.593Z,100.00
2022-10-26T22:43:59.304Z,100.00
2022-10-26T22:49:03.669Z,100.00
2022-10-26T22:54:06.635Z,100.00
2022-10-26T22:59:09.349Z,100.00
2022-10-26T23:04:13.980Z,100.00
2022-10-26T23:09:16.995Z,100.00
2022-10-26T23:14:19.707Z,100.00
2022-10-26T23:19:23.760Z,100.00
2022-10-26T23:24:26.446Z,100.00
2022-10-26T23:29:29.264Z,100.00
2022-10-26T23:34:33.467Z,100.00
2022-10-26T23:39:36.174Z,100.00
2022-10-26T23:44:38.880Z,100.00
2022-10-26T23:49:42.972Z,100.00
2022-10-26T23:54:45.720Z,100.00
2022-10-26T23:59:48.539Z,100.00
